createdAt,value
2018-09-01T00:00:09.136Z,12.78
2018-09-01T00:02:36.132Z,12.71
2018-09-01T00:05:03.311Z,12.66
2018-09-01T00:07:30.252Z,12.65
2018-09-01T00:09:57.153Z,12.61
2018-09-01T00:12:24.069Z,12.58
2018-09-01T00:14:50.957Z,12.59
2018-09-01T00:17:23.666Z,12.57
2018-09-01T00:19:50.567Z,12.50
2018-09-01T00:22:17.447Z,12.50
2018-09-01T00:24:44.356Z,12.47
2018-09-01T00:27:11.238Z,12.41
2018-09-01T00:29:38.130Z,12.48
2018-09-01T00:32:05.060Z,12.49
2018-09-01T00:34:31.956Z,12.47
2018-09-01T00:36:58.831Z,12.45
2018-09-01T00:39:25.732Z,12.47
2018-09-01T00:41:52.634Z,12.50
2018-09-01T00:44:19.537Z,12.43
2018-09-01T00:46:46.423Z,12.39
2018-09-01T00:49:13.316Z,12.32
2018-09-01T00:51:40.441Z,12.22
2018-09-01T00:54:07.331Z,12.24
2018-09-01T00:56:34.396Z,12.20
2018-09-01T00:59:01.436Z,12.18
2018-09-01T01:01:28.616Z,12.07
2018-09-01T01:03:56.148Z,12.05
2018-09-01T01:06:23.037Z,12.05
2018-09-01T01:08:50.153Z,11.94
2018-09-01T01:11:17.529Z,11.90
2018-09-01T01:13:44.522Z,11.89
2018-09-01T01:16:11.408Z,11.78
2018-09-01T01:18:38.296Z,11.80
2018-09-01T01:21:08.359Z,11.78
2018-09-01T01:23:35.468Z,11.81
2018-09-01T01:26:02.387Z,11.92
2018-09-01T01:28:31.121Z,11.97
2018-09-01T01:30:58.056Z,11.98
2018-09-01T01:33:24.963Z,11.94
2018-09-01T01:35:51.869Z,12.00
2018-09-01T01:38:18.810Z,12.06
2018-09-01T01:40:46.275Z,12.03
2018-09-01T01:43:13.185Z,12.03
2018-09-01T01:45:40.104Z,11.98
2018-09-01T01:48:06.993Z,11.94
2018-09-01T01:50:33.880Z,11.80
2018-09-01T01:53:00.783Z,11.74
2018-09-01T01:55:27.699Z,11.59
2018-09-01T01:57:54.596Z,11.60
2018-09-01T02:00:21.501Z,11.56
2018-09-01T02:02:48.668Z,11.53
2018-09-01T02:05:18.252Z,11.51
2018-09-01T02:07:46.112Z,11.56
2018-09-01T02:10:13.382Z,11.50
2018-09-01T02:12:40.368Z,11.49
2018-09-01T02:15:07.296Z,11.37
2018-09-01T02:17:34.287Z,11.38
2018-09-01T02:20:01.220Z,11.34
2018-09-01T02:22:28.111Z,11.25
2018-09-01T02:24:55.017Z,11.26
2018-09-01T02:27:21.950Z,11.27
2018-09-01T02:29:49.217Z,11.25
2018-09-01T02:32:17.238Z,11.29
2018-09-01T02:34:44.168Z,11.33
2018-09-01T02:37:11.064Z,11.36
2018-09-01T02:39:37.971Z,11.35
2018-09-01T02:42:05.048Z,11.40
2018-09-01T02:44:31.929Z,11.37
2018-09-01T02:46:58.831Z,11.34
2018-09-01T02:49:25.712Z,11.34
2018-09-01T02:51:52.626Z,11.33
2018-09-01T02:54:19.516Z,11.32
2018-09-01T02:56:46.408Z,11.38
2018-09-01T02:59:13.297Z,11.37
2018-09-01T03:01:40.241Z,11.31
2018-09-01T03:04:07.527Z,11.30
2018-09-01T03:06:57.113Z,11.29
2018-09-01T03:09:24.351Z,11.32
2018-09-01T03:11:52.036Z,11.34
2018-09-01T03:14:19.167Z,11.34
2018-09-01T03:16:46.152Z,11.37
2018-09-01T03:19:13.061Z,11.43
2018-09-01T03:21:42.836Z,11.49
2018-09-01T03:24:09.724Z,11.58
2018-09-01T03:26:36.626Z,11.50
2018-09-01T03:29:03.538Z,11.41
2018-09-01T03:31:30.449Z,11.34
2018-09-01T03:33:57.352Z,11.31
2018-09-01T03:36:24.250Z,11.30
2018-09-01T03:38:51.116Z,11.37
2018-09-01T03:41:18.026Z,11.29
2018-09-01T03:43:44.931Z,11.26
2018-09-01T03:46:11.833Z,11.26
2018-09-01T03:48:39.223Z,11.19
2018-09-01T03:51:06.173Z,11.15
2018-09-01T03:53:33.048Z,11.15
2018-09-01T03:56:00.061Z,11.13
2018-09-01T03:58:26.967Z,11.13
2018-09-01T04:00:53.924Z,11.16
2018-09-01T04:03:21.330Z,11.07
2018-09-01T04:05:48.243Z,11.05
2018-09-01T04:08:15.116Z,11.12
2018-09-01T04:10:42.155Z,11.05
2018-09-01T04:13:09.028Z,11.03
2018-09-01T04:15:35.914Z,11.01
2018-09-01T04:18:02.969Z,10.99
2018-09-01T04:20:29.849Z,10.94
2018-09-01T04:22:56.741Z,10.94
2018-09-01T04:25:23.663Z,10.83
2018-09-01T04:27:50.579Z,10.95
2018-09-01T04:30:17.485Z,10.92
2018-09-01T04:32:44.382Z,10.94
2018-09-01T04:35:11.256Z,10.89
2018-09-01T04:37:38.154Z,10.87
2018-09-01T04:40:05.236Z,10.89
2018-09-01T04:42:32.152Z,10.90
2018-09-01T04:44:59.049Z,10.89
2018-09-01T04:47:25.936Z,10.95
2018-09-01T04:49:52.833Z,10.93
2018-09-01T04:52:19.725Z,10.91
2018-09-01T04:54:46.628Z,10.97
2018-09-01T04:57:13.540Z,11.08
2018-09-01T04:59:40.455Z,11.13
2018-09-01T05:02:07.388Z,11.14
2018-09-01T05:04:34.288Z,11.17
2018-09-01T05:07:01.200Z,11.17
2018-09-01T05:09:28.077Z,11.11
2018-09-01T05:11:55.031Z,11.09
2018-09-01T05:14:21.961Z,11.05
2018-09-01T05:16:48.899Z,11.07
2018-09-01T05:19:15.848Z,11.10
2018-09-01T05:21:42.784Z,11.23
2018-09-01T05:24:09.680Z,11.27
2018-09-01T05:26:36.569Z,11.32
2018-09-01T05:29:03.469Z,11.28
2018-09-01T05:31:30.349Z,11.30
2018-09-01T05:33:57.269Z,11.29
2018-09-01T05:36:24.204Z,11.32
2018-09-01T05:38:51.053Z,11.36
2018-09-01T05:41:17.948Z,11.31
2018-09-01T05:43:44.854Z,11.29
2018-09-01T05:46:11.716Z,11.35
2018-09-01T05:48:38.613Z,11.36
2018-09-01T05:51:05.529Z,11.37
2018-09-01T05:53:32.449Z,11.42
2018-09-01T05:55:59.340Z,11.70
2018-09-01T05:58:26.261Z,11.92
2018-09-01T06:00:53.195Z,12.04
2018-09-01T06:03:20.101Z,12.12
2018-09-01T06:05:47.782Z,11.83
2018-09-01T06:08:14.864Z,12.02
2018-09-01T06:10:41.736Z,11.89
2018-09-01T06:13:08.632Z,11.77
2018-09-01T06:15:35.523Z,11.91
2018-09-01T06:18:02.477Z,12.10
2018-09-01T06:20:29.308Z,12.09
2018-09-01T06:22:56.200Z,12.10
2018-09-01T06:25:23.093Z,12.15
2018-09-01T06:27:51.621Z,12.07
2018-09-01T06:30:22.634Z,12.13
2018-09-01T06:32:49.583Z,12.24
2018-09-01T06:37:50.052Z,12.52
2018-09-01T06:40:16.956Z,12.53
2018-09-01T06:42:43.868Z,12.66
2018-09-01T06:45:10.766Z,12.74
2018-09-01T06:47:37.669Z,12.81
2018-09-01T06:50:04.689Z,12.80
2018-09-01T06:52:31.601Z,12.88
2018-09-01T06:54:58.478Z,13.11
2018-09-01T06:57:25.398Z,13.15
2018-09-01T06:59:52.353Z,13.22
2018-09-01T07:02:19.228Z,13.17
2018-09-01T07:04:46.136Z,13.04
2018-09-01T07:07:13.000Z,13.18
2018-09-01T07:09:39.872Z,13.45
2018-09-01T07:12:06.746Z,13.31
2018-09-01T07:14:33.629Z,13.39
2018-09-01T07:17:00.737Z,13.30
2018-09-01T07:19:27.629Z,13.43
2018-09-01T07:21:54.501Z,13.83
2018-09-01T07:24:21.389Z,13.96
2018-09-01T07:26:48.269Z,13.83
2018-09-01T07:29:15.153Z,13.81
2018-09-01T07:31:42.647Z,13.84
2018-09-01T07:34:09.645Z,14.17
2018-09-01T07:36:36.535Z,14.45
2018-09-01T07:39:04.373Z,14.82
2018-09-01T07:41:31.274Z,15.02
2018-09-01T07:43:58.157Z,14.99
2018-09-01T07:46:25.065Z,14.82
2018-09-01T07:48:51.979Z,14.93
2018-09-01T07:51:18.852Z,14.91
2018-09-01T07:53:45.813Z,14.82
2018-09-01T07:56:12.849Z,15.05
2018-09-01T07:58:39.737Z,15.30
2018-09-01T08:01:06.620Z,15.50
2018-09-01T08:03:33.517Z,15.73
2018-09-01T08:06:00.394Z,15.70
2018-09-01T08:08:27.285Z,15.83
2018-09-01T08:10:54.216Z,15.87
2018-09-01T08:13:21.146Z,16.18
2018-09-01T08:15:48.034Z,16.96
2018-09-01T08:18:14.920Z,17.55
2018-09-01T08:20:41.829Z,18.23
2018-09-01T08:23:08.741Z,18.63
2018-09-01T08:25:35.682Z,18.53
2018-09-01T08:28:02.605Z,18.47
2018-09-01T08:30:29.554Z,18.54
2018-09-01T08:32:56.452Z,17.74
2018-09-01T08:35:23.344Z,17.23
2018-09-01T08:37:50.243Z,17.24
2018-09-01T08:40:17.208Z,17.11
2018-09-01T08:42:44.057Z,17.77
2018-09-01T08:45:10.989Z,18.23
2018-09-01T08:47:37.881Z,18.59
2018-09-01T08:50:04.869Z,18.69
2018-09-01T08:52:31.739Z,18.82
2018-09-01T08:54:58.624Z,19.15
2018-09-01T08:57:25.509Z,18.79
2018-09-01T08:59:52.389Z,19.20
2018-09-01T09:02:19.285Z,19.36
2018-09-01T09:04:46.248Z,19.56
2018-09-01T09:07:13.136Z,19.73
2018-09-01T09:09:40.065Z,19.03
2018-09-01T09:12:06.937Z,18.84
2018-09-01T09:14:33.857Z,18.65
2018-09-01T09:17:01.129Z,18.41
2018-09-01T09:19:28.024Z,18.28
2018-09-01T09:21:54.935Z,17.88
2018-09-01T09:24:21.890Z,17.50
2018-09-01T09:26:48.825Z,18.05
2018-09-01T09:29:15.736Z,19.27
2018-09-01T09:31:42.608Z,19.04
2018-09-01T09:34:09.484Z,19.55
2018-09-01T09:36:36.363Z,19.85
2018-09-01T09:39:04.957Z,19.83
2018-09-01T09:41:31.840Z,19.21
2018-09-01T09:43:58.708Z,18.91
2018-09-01T09:46:25.590Z,18.65
2018-09-01T09:48:52.520Z,19.14
2018-09-01T09:51:19.481Z,20.03
2018-09-01T09:53:46.969Z,19.65
2018-09-01T09:56:13.889Z,19.72
2018-09-01T09:58:40.827Z,20.60
2018-09-01T10:01:13.504Z,21.76
2018-09-01T10:03:40.393Z,21.67
2018-09-01T10:06:07.281Z,21.15
2018-09-01T10:08:34.162Z,21.02
2018-09-01T10:11:01.165Z,20.32
2018-09-01T10:13:28.001Z,20.00
2018-09-01T10:15:54.943Z,20.12
2018-09-01T10:18:21.788Z,20.24
2018-09-01T10:20:48.708Z,20.25
2018-09-01T10:23:15.589Z,20.04
2018-09-01T10:25:42.497Z,19.18
2018-09-01T10:28:09.410Z,19.57
2018-09-01T10:30:36.318Z,19.97
2018-09-01T10:33:03.276Z,20.64
2018-09-01T10:35:30.200Z,21.22
2018-09-01T10:37:57.090Z,21.39
2018-09-01T10:40:23.986Z,21.31
2018-09-01T10:42:50.976Z,21.10
2018-09-01T10:45:17.852Z,20.52
2018-09-01T10:47:45.067Z,19.90
2018-09-01T10:50:11.928Z,20.34
2018-09-01T10:52:38.801Z,20.65
2018-09-01T10:55:05.741Z,20.65
2018-09-01T10:57:32.644Z,21.33
2018-09-01T10:59:59.530Z,21.51
2018-09-01T11:02:33.313Z,22.19
2018-09-01T11:05:00.247Z,21.49
2018-09-01T11:07:27.120Z,20.99
2018-09-01T11:09:53.993Z,21.09
2018-09-01T11:12:21.148Z,21.07
2018-09-01T11:14:48.012Z,21.66
2018-09-01T11:17:14.938Z,21.06
2018-09-01T11:19:41.848Z,20.50
2018-09-01T11:22:08.769Z,19.91
2018-09-01T11:24:35.654Z,20.33
2018-09-01T11:27:02.577Z,21.67
2018-09-01T11:29:29.453Z,20.91
2018-09-01T11:31:56.369Z,19.98
2018-09-01T11:34:23.326Z,19.85
2018-09-01T11:36:50.326Z,19.90
2018-09-01T11:39:17.121Z,20.62
2018-09-01T11:41:44.050Z,21.52
2018-09-01T11:44:10.948Z,22.15
2018-09-01T11:46:37.841Z,21.87
2018-09-01T11:49:04.751Z,21.12
2018-09-01T11:51:31.677Z,20.30
2018-09-01T11:53:58.611Z,20.28
2018-09-01T11:56:25.536Z,20.87
2018-09-01T11:58:52.536Z,21.01
2018-09-01T12:01:19.441Z,21.29
2018-09-01T12:03:46.348Z,20.91
2018-09-01T12:06:13.362Z,20.98
2018-09-01T12:08:40.233Z,21.45
2018-09-01T12:11:07.149Z,21.57
2018-09-01T12:13:34.041Z,20.81
2018-09-01T12:16:00.970Z,20.16
2018-09-01T12:18:27.902Z,19.79
2018-09-01T12:20:54.810Z,19.45
2018-09-01T12:23:21.738Z,19.37
2018-09-01T12:25:48.625Z,20.14
2018-09-01T12:28:15.601Z,21.25
2018-09-01T12:30:42.470Z,21.50
2018-09-01T12:33:09.438Z,21.73
2018-09-01T12:35:36.321Z,21.34
2018-09-01T12:38:03.272Z,20.41
2018-09-01T12:40:30.153Z,19.90
2018-09-01T12:42:57.048Z,19.62
2018-09-01T12:45:23.939Z,19.58
2018-09-01T12:47:57.760Z,19.54
2018-09-01T12:50:24.659Z,19.71
2018-09-01T12:52:51.549Z,20.59
2018-09-01T12:55:18.473Z,21.43
2018-09-01T12:57:45.372Z,21.79
2018-09-01T13:00:12.317Z,21.68
2018-09-01T13:02:39.239Z,21.83
2018-09-01T13:05:06.200Z,21.75
2018-09-01T13:07:33.126Z,21.64
2018-09-01T13:10:00.019Z,21.98
2018-09-01T13:12:26.918Z,21.98
2018-09-01T13:14:53.801Z,22.20
2018-09-01T13:17:20.719Z,22.88
2018-09-01T13:19:47.618Z,22.85
2018-09-01T13:22:14.504Z,22.62
2018-09-01T13:24:41.435Z,22.39
2018-09-01T13:27:08.338Z,22.66
2018-09-01T13:29:35.245Z,22.53
2018-09-01T13:32:02.259Z,22.09
2018-09-01T13:34:29.263Z,22.02
2018-09-01T13:36:56.097Z,21.90
2018-09-01T13:39:22.991Z,21.85
2018-09-01T13:41:49.914Z,21.90
2018-09-01T13:44:17.223Z,21.78
2018-09-01T13:46:44.124Z,21.68
2018-09-01T13:49:11.049Z,21.30
2018-09-01T13:51:37.966Z,20.77
2018-09-01T13:54:04.974Z,21.10
2018-09-01T13:56:31.941Z,21.36
2018-09-01T13:58:58.831Z,21.41
2018-09-01T14:01:25.738Z,21.80
2018-09-01T14:03:52.637Z,21.90
2018-09-01T14:06:19.512Z,22.01
2018-09-01T14:08:46.447Z,21.47
2018-09-01T14:11:13.471Z,20.75
2018-09-01T14:13:40.402Z,20.62
2018-09-01T14:16:07.365Z,20.77
2018-09-01T14:18:34.300Z,20.46
2018-09-01T14:21:01.215Z,20.41
2018-09-01T14:23:28.189Z,20.28
2018-09-01T14:25:55.158Z,20.29
2018-09-01T14:28:22.210Z,20.30
2018-09-01T14:30:49.392Z,20.19
2018-09-01T14:33:16.315Z,20.12
2018-09-01T14:35:43.264Z,20.14
2018-09-01T14:38:10.149Z,20.13
2018-09-01T14:40:37.133Z,20.21
2018-09-01T14:43:04.265Z,20.08
2018-09-01T14:45:31.373Z,20.06
2018-09-01T14:47:58.279Z,20.03
2018-09-01T14:50:25.182Z,19.95
2018-09-01T14:52:52.137Z,19.94
2018-09-01T14:55:19.048Z,19.93
2018-09-01T14:57:45.974Z,19.82
2018-09-01T15:00:12.885Z,19.74
2018-09-01T15:02:39.914Z,19.78
2018-09-01T15:05:06.852Z,19.76
2018-09-01T15:07:33.876Z,19.86
2018-09-01T15:10:00.824Z,19.83
2018-09-01T15:12:27.838Z,19.85
2018-09-01T15:14:54.865Z,19.96
2018-09-01T15:17:21.789Z,19.89
2018-09-01T15:19:48.892Z,19.72
2018-09-01T15:22:15.777Z,19.59
2018-09-01T15:24:42.719Z,19.63
2018-09-01T15:27:09.662Z,19.64
2018-09-01T15:29:36.577Z,19.65
2018-09-01T15:32:03.510Z,19.71
2018-09-01T15:34:30.400Z,19.70
2018-09-01T15:36:57.321Z,19.71
2018-09-01T15:39:24.301Z,19.65
2018-09-01T15:41:51.321Z,19.57
2018-09-01T15:44:18.288Z,19.53
2018-09-01T15:46:45.181Z,19.54
2018-09-01T15:49:12.115Z,19.60
2018-09-01T15:51:39.028Z,19.63
2018-09-01T15:54:05.944Z,19.67
2018-09-01T15:56:33.012Z,19.65
2018-09-01T15:58:59.849Z,19.64
2018-09-01T16:01:26.741Z,19.76
2018-09-01T16:04:00.544Z,19.87
2018-09-01T16:06:27.465Z,19.81
2018-09-01T16:08:54.369Z,19.68
2018-09-01T16:11:21.270Z,19.55
2018-09-01T16:13:48.144Z,19.40
2018-09-01T16:16:15.034Z,19.29
2018-09-01T16:18:41.932Z,19.25
2018-09-01T16:21:08.888Z,19.20
2018-09-01T16:23:35.802Z,19.21
2018-09-01T16:26:02.708Z,19.23
2018-09-01T16:28:29.602Z,19.24
2018-09-01T16:30:56.548Z,19.20
2018-09-01T16:33:23.469Z,19.11
2018-09-01T16:35:50.408Z,18.98
2018-09-01T16:38:17.404Z,18.88
2018-09-01T16:40:44.337Z,18.81
2018-09-01T16:43:11.229Z,18.78
2018-09-01T16:45:38.133Z,18.71
2018-09-01T16:48:05.048Z,18.70
2018-09-01T16:50:31.964Z,18.68
2018-09-01T16:52:58.868Z,18.64
2018-09-01T16:55:25.765Z,18.60
2018-09-01T16:57:52.648Z,18.52
2018-09-01T17:00:19.542Z,18.47
2018-09-01T17:02:46.452Z,18.47
2018-09-01T17:05:13.360Z,18.46
2018-09-01T17:07:40.256Z,18.43
2018-09-01T17:10:07.265Z,18.36
2018-09-01T17:12:34.216Z,18.27
2018-09-01T17:15:01.220Z,18.20
2018-09-01T17:17:28.321Z,18.14
2018-09-01T17:19:55.216Z,18.01
2018-09-01T17:22:22.965Z,17.92
2018-09-01T17:24:49.910Z,17.83
2018-09-01T17:27:16.820Z,17.83
2018-09-01T17:29:43.768Z,17.82
2018-09-01T17:32:10.691Z,17.78
2018-09-01T17:34:37.588Z,17.68
2018-09-01T17:37:04.565Z,17.64
2018-09-01T17:39:31.478Z,17.52
2018-09-01T17:41:58.392Z,17.46
2018-09-01T17:44:25.300Z,17.38
2018-09-01T17:46:52.216Z,17.24
2018-09-01T17:49:19.103Z,17.20
2018-09-01T17:51:46.017Z,17.15
2018-09-01T17:54:12.915Z,17.06
2018-09-01T17:56:39.836Z,17.11
2018-09-01T17:59:06.741Z,17.06
2018-09-01T18:01:34.013Z,17.00
2018-09-01T18:04:00.924Z,16.92
2018-09-01T18:06:27.849Z,16.89
2018-09-01T18:08:54.764Z,16.86
2018-09-01T18:11:21.676Z,16.80
2018-09-01T18:13:48.832Z,16.71
2018-09-01T18:16:15.757Z,16.54
2018-09-01T18:18:42.668Z,16.36
2018-09-01T18:21:09.568Z,16.25
2018-09-01T18:23:36.508Z,16.12
2018-09-01T18:26:03.405Z,15.98
2018-09-01T18:28:30.313Z,15.89
2018-09-01T18:30:57.225Z,15.84
2018-09-01T18:33:24.123Z,15.74
2018-09-01T18:35:51.051Z,15.77
2018-09-01T18:38:17.964Z,15.76
2018-09-01T18:40:44.880Z,15.76
2018-09-01T18:43:11.793Z,15.68
2018-09-01T18:45:38.705Z,15.63
2018-09-01T18:48:05.589Z,15.63
2018-09-01T18:50:32.513Z,15.53
2018-09-01T18:52:59.421Z,15.49
2018-09-01T18:55:26.313Z,15.49
2018-09-01T18:57:53.192Z,15.50
2018-09-01T19:00:20.084Z,15.44
2018-09-01T19:02:47.273Z,15.41
2018-09-01T19:05:14.157Z,15.33
2018-09-01T19:07:41.070Z,15.26
2018-09-01T19:10:07.988Z,15.17
2018-09-01T19:12:34.901Z,15.01
2018-09-01T19:15:01.773Z,14.83
2018-09-01T19:17:28.677Z,14.77
2018-09-01T19:19:55.553Z,14.67
2018-09-01T19:22:22.470Z,14.67
2018-09-01T19:24:49.369Z,14.63
2018-09-01T19:27:16.337Z,14.61
2018-09-01T19:29:43.226Z,14.60
2018-09-01T19:32:10.111Z,14.51
2018-09-01T19:34:36.986Z,14.44
2018-09-01T19:37:03.877Z,14.40
2018-09-01T19:39:30.780Z,14.33
2018-09-01T19:41:57.699Z,14.24
2018-09-01T19:44:24.580Z,14.13
2018-09-01T19:46:51.497Z,14.04
2018-09-01T19:49:18.388Z,14.05
2018-09-01T19:51:45.306Z,14.12
2018-09-01T19:54:12.193Z,14.01
2018-09-01T19:56:39.109Z,13.87
2018-09-01T19:59:06.071Z,13.92
2018-09-01T20:01:32.969Z,13.93
2018-09-01T20:03:59.843Z,13.84
2018-09-01T20:06:26.777Z,13.74
2018-09-01T20:08:53.664Z,13.68
2018-09-01T20:11:20.681Z,13.76
2018-09-01T20:13:47.605Z,13.77
2018-09-01T20:16:14.544Z,13.68
2018-09-01T20:18:41.437Z,13.58
2018-09-01T20:21:08.417Z,13.55
2018-09-01T20:23:35.348Z,13.56
2018-09-01T20:26:02.277Z,13.50
2018-09-01T20:28:29.173Z,13.40
2018-09-01T20:30:56.056Z,13.30
2018-09-01T20:33:22.952Z,13.17
2018-09-01T20:35:55.758Z,13.22
2018-09-01T20:38:23.852Z,13.25
2018-09-01T20:40:50.736Z,13.15
2018-09-01T20:43:17.642Z,13.05
2018-09-01T20:45:44.725Z,13.02
2018-09-01T20:48:11.629Z,13.05
2018-09-01T20:50:38.529Z,12.99
2018-09-01T20:53:05.434Z,12.94
2018-09-01T20:55:32.313Z,12.87
2018-09-01T20:57:59.214Z,12.90
2018-09-01T21:00:26.127Z,12.90
2018-09-01T21:02:53.026Z,12.90
2018-09-01T21:05:19.949Z,12.86
2018-09-01T21:07:46.877Z,12.80
2018-09-01T21:10:13.783Z,12.67
2018-09-01T21:12:40.802Z,12.59
2018-09-01T21:15:07.744Z,12.62
2018-09-01T21:17:34.680Z,12.64
2018-09-01T21:20:01.917Z,12.58
2018-09-01T21:22:28.848Z,12.51
2018-09-01T21:24:55.766Z,12.48
2018-09-01T21:27:22.669Z,12.49
2018-09-01T21:29:49.564Z,12.41
2018-09-01T21:32:16.476Z,12.33
2018-09-01T21:34:43.380Z,12.28
2018-09-01T21:37:10.284Z,12.33
2018-09-01T21:39:37.186Z,12.39
2018-09-01T21:42:04.146Z,12.33
2018-09-01T21:44:31.068Z,12.26
2018-09-01T21:46:57.957Z,12.19
2018-09-01T21:49:24.876Z,12.23
2018-09-01T21:51:51.788Z,12.18
2018-09-01T21:54:18.704Z,12.11
2018-09-01T21:56:45.621Z,12.04
2018-09-01T21:59:12.533Z,11.97
2018-09-01T22:01:39.421Z,12.04
2018-09-01T22:04:06.328Z,12.01
2018-09-01T22:06:33.213Z,11.95
2018-09-01T22:09:00.325Z,11.89
2018-09-01T22:11:27.248Z,11.90
2018-09-01T22:13:54.149Z,11.86
2018-09-01T22:16:21.051Z,11.82
2018-09-01T22:18:47.992Z,11.84
2018-09-01T22:21:14.907Z,11.78
2018-09-01T22:23:41.818Z,11.74
2018-09-01T22:26:08.845Z,11.73
2018-09-01T22:28:35.838Z,11.69
2018-09-01T22:31:02.950Z,11.61
2018-09-01T22:33:29.845Z,11.58
2018-09-01T22:35:56.906Z,11.61
2018-09-01T22:38:23.840Z,11.53
2018-09-01T22:40:50.796Z,11.49
2018-09-01T22:43:17.722Z,11.44
2018-09-01T22:45:44.616Z,11.44
2018-09-01T22:48:11.512Z,11.41
2018-09-01T22:50:38.394Z,11.39
2018-09-01T22:53:05.344Z,11.43
2018-09-01T22:55:32.230Z,11.41
2018-09-01T22:57:59.185Z,11.32
2018-09-01T23:00:26.081Z,11.30
2018-09-01T23:02:52.973Z,11.31
2018-09-01T23:05:20.429Z,11.27
2018-09-01T23:07:47.385Z,11.25
2018-09-01T23:10:14.312Z,11.18
2018-09-01T23:12:41.261Z,11.19
2018-09-01T23:15:08.206Z,11.19
2018-09-01T23:17:35.093Z,11.17
2018-09-01T23:20:02.057Z,11.09
2018-09-01T23:22:28.962Z,11.02
2018-09-01T23:24:55.892Z,11.01
2018-09-01T23:27:22.809Z,11.01
2018-09-01T23:29:49.715Z,10.98
2018-09-01T23:32:16.609Z,10.96
2018-09-01T23:34:43.505Z,10.92
2018-09-01T23:37:10.402Z,10.95
2018-09-01T23:39:37.302Z,10.93
2018-09-01T23:42:04.197Z,10.83
2018-09-01T23:44:31.136Z,10.86
2018-09-01T23:46:58.048Z,10.89
2018-09-01T23:49:24.953Z,10.88
2018-09-01T23:51:51.862Z,10.84
2018-09-01T23:54:18.773Z,10.81
2018-09-01T23:56:45.684Z,10.71
2018-09-01T23:59:12.613Z,10.70
